Terminal Aerodrome Forecast
Issued by NWS Boston, MA

Home | Current Version | Previous Version | Text Only | Print | Product List | Glossary On
Versions: 1 2 3 4 5 6 7 8 9 10 11 12 13 14 15 16 17 18 19 20 21 22
000
FTUS41 KBOX 230542
TAFBDL
TAF
KBDL 230542Z 2306/2412 02009KT 6SM -DZ OVC010
     FM231600 04013G31KT P6SM -SHRADZ OVC015
     FM232300 04017G35KT P6SM -SHRA OVC015
     FM240300 03018G34KT 2SM RAPL BR OVC008
     FM240600 04015G40KT 1 1/2SM -RAPL BR OVC010
     FM241000 03015G35KT 2SM -RA BR OVC010 WS020/06040KT
     FM241100 03014G34KT 2SM -RA BR OVC010=

USA.gov is the U.S. government's official web portal to all federal, state and local government web resources and services.